createdAt,value
2023-04-02T00:00:47.329Z,5.57
2023-04-02T00:05:54.487Z,5.32
2023-04-02T00:11:01.954Z,5.32
2023-04-02T00:16:10.565Z,5.56
2023-04-02T00:21:21.810Z,5.61
2023-04-02T00:26:36.872Z,5.56
2023-04-02T00:31:48.216Z,5.48
2023-04-02T00:36:54.498Z,5.48
2023-04-02T00:42:07.108Z,5.48
2023-04-02T00:47:34.260Z,5.29
2023-04-02T00:52:41.802Z,5.13
2023-04-02T00:57:49.205Z,5.45
2023-04-02T01:03:17.104Z,5.36
2023-04-02T01:08:42.001Z,5.30
2023-04-02T01:14:05.544Z,5.37
2023-04-02T01:19:47.420Z,5.45
2023-04-02T01:24:54.753Z,5.41
2023-04-02T01:30:03.452Z,5.48
2023-04-02T01:35:10.606Z,5.37
2023-04-02T01:40:21.999Z,5.36
2023-04-02T01:45:28.995Z,5.65
2023-04-02T01:50:41.841Z,5.63
2023-04-02T01:55:50.830Z,5.62
2023-04-02T02:01:06.130Z,5.62
2023-04-02T02:06:17.249Z,5.54
2023-04-02T02:11:26.217Z,5.63
2023-04-02T02:16:33.362Z,5.53
2023-04-02T02:21:44.742Z,5.44
2023-04-02T02:26:53.199Z,5.26
2023-04-02T02:32:01.064Z,5.41
2023-04-02T02:37:25.800Z,5.27
2023-04-02T02:42:37.397Z,5.29
2023-04-02T02:47:45.125Z,5.41
2023-04-02T02:52:57.461Z,5.29
2023-04-02T02:58:26.601Z,5.41
2023-04-02T03:03:41.051Z,5.43
2023-04-02T03:08:50.853Z,5.43
2023-04-02T03:14:01.114Z,5.34
2023-04-02T03:19:25.934Z,5.46
2023-04-02T03:24:34.780Z,5.48
2023-04-02T03:29:44.095Z,5.48
2023-04-02T03:34:59.260Z,5.53
2023-04-02T03:40:11.909Z,5.40
2023-04-02T03:45:26.356Z,5.36
2023-04-02T03:50:44.000Z,5.22
2023-04-02T03:55:50.554Z,5.13
2023-04-02T04:01:17.635Z,5.16
2023-04-02T04:06:32.355Z,5.06
2023-04-02T04:11:47.597Z,5.06
2023-04-02T04:17:03.934Z,4.86
2023-04-02T04:22:19.240Z,4.81
2023-04-02T04:27:38.092Z,4.74
2023-04-02T04:32:55.385Z,4.65
2023-04-02T04:38:16.297Z,4.60
2023-04-02T04:43:41.418Z,4.65
2023-04-02T04:48:53.336Z,4.58
2023-04-02T04:54:01.027Z,4.67
2023-04-02T04:59:23.175Z,4.67
2023-04-02T05:04:38.794Z,4.77
2023-04-02T05:10:01.294Z,4.77
2023-04-02T05:15:31.340Z,4.94
2023-04-02T05:20:40.934Z,4.97
2023-04-02T05:25:56.564Z,5.11
2023-04-02T05:31:08.662Z,5.04
2023-04-02T05:36:23.227Z,5.10
2023-04-02T05:41:34.869Z,5.09
2023-04-02T05:46:53.852Z,5.28
2023-04-02T05:52:04.126Z,5.43
2023-04-02T05:57:12.865Z,5.40
2023-04-02T06:02:34.252Z,5.49
2023-04-02T06:07:47.125Z,5.61
2023-04-02T06:13:01.801Z,5.46
2023-04-02T06:18:27.020Z,5.57
2023-04-02T06:23:50.063Z,5.70
2023-04-02T06:28:58.892Z,5.73
2023-04-02T06:34:07.820Z,5.86
2023-04-02T06:39:22.940Z,5.86
2023-04-02T06:44:32.470Z,6.02
2023-04-02T06:50:04.066Z,6.12
2023-04-02T06:55:41.383Z,6.17
2023-04-02T07:00:49.990Z,6.02
2023-04-02T07:05:58.549Z,6.09
2023-04-02T07:11:04.290Z,6.33
2023-04-02T07:16:16.248Z,6.23
2023-04-02T07:21:25.011Z,6.39
2023-04-02T07:26:30.886Z,6.53
2023-04-02T07:31:37.976Z,6.56
2023-04-02T07:36:43.615Z,6.65
2023-04-02T07:41:55.330Z,6.74
2023-04-02T07:47:01.407Z,6.90
2023-04-02T07:52:07.470Z,6.77
2023-04-02T07:57:13.356Z,6.69
2023-04-02T08:02:23.700Z,7.02
2023-04-02T08:07:29.741Z,6.86
2023-04-02T08:12:35.596Z,6.99
2023-04-02T08:17:43.230Z,6.97
2023-04-02T08:22:50.668Z,7.03
2023-04-02T08:27:56.482Z,7.07
2023-04-02T08:33:02.121Z,6.93
2023-04-02T08:38:07.728Z,6.95
2023-04-02T08:43:39.225Z,7.05
2023-04-02T08:48:47.360Z,7.46
2023-04-02T08:53:58.876Z,7.42
2023-04-02T08:59:07.373Z,7.70
2023-04-02T09:04:21.822Z,7.67
2023-04-02T09:09:28.902Z,7.40
2023-04-02T09:14:52.917Z,7.50
2023-04-02T09:20:10.430Z,7.82
2023-04-02T09:25:28.090Z,8.45
2023-04-02T09:30:45.452Z,8.53
2023-04-02T09:35:54.049Z,8.40
2023-04-02T09:41:03.771Z,8.22
2023-04-02T09:46:21.155Z,8.06
2023-04-02T09:51:33.387Z,7.80
2023-04-02T09:56:41.437Z,7.82
2023-04-02T10:01:50.063Z,8.10
2023-04-02T10:07:00.082Z,8.71
2023-04-02T10:12:11.006Z,8.62
2023-04-02T10:17:28.539Z,8.49
2023-04-02T10:22:34.744Z,8.32
2023-04-02T10:27:52.300Z,8.12
2023-04-02T10:33:06.638Z,8.56
2023-04-02T10:38:27.007Z,8.80
2023-04-02T10:43:50.544Z,9.31
2023-04-02T10:49:01.810Z,8.88
2023-04-02T10:54:30.750Z,8.82
2023-04-02T10:59:38.562Z,8.97
2023-04-02T11:04:48.860Z,9.00
2023-04-02T11:09:57.514Z,8.72
2023-04-02T11:15:03.779Z,8.90
2023-04-02T11:20:44.117Z,9.52
2023-04-02T11:25:50.443Z,9.67
2023-04-02T11:30:57.592Z,9.45
2023-04-02T11:36:03.361Z,9.22
2023-04-02T11:41:08.972Z,9.24
2023-04-02T11:46:32.731Z,9.60
2023-04-02T11:51:41.522Z,9.51
2023-04-02T11:56:52.992Z,9.06
2023-04-02T12:02:16.682Z,9.22
2023-04-02T12:07:55.323Z,9.52
2023-04-02T12:13:00.889Z,9.49
2023-04-02T12:18:16.257Z,9.18
2023-04-02T12:23:25.220Z,9.12
2023-04-02T12:28:33.027Z,9.37
2023-04-02T12:33:43.377Z,9.16
2023-04-02T12:38:52.910Z,8.85
2023-04-02T12:44:01.443Z,9.27
2023-04-02T12:49:10.279Z,9.27
2023-04-02T12:54:18.540Z,9.33
2023-04-02T12:59:39.370Z,9.33
2023-04-02T13:04:53.655Z,9.90
2023-04-02T13:10:02.098Z,9.49
2023-04-02T13:15:11.037Z,9.19
2023-04-02T13:20:36.448Z,9.21
2023-04-02T13:25:43.312Z,9.54
2023-04-02T13:30:49.375Z,8.89
2023-04-02T13:35:55.158Z,9.28
2023-04-02T13:41:00.916Z,9.10
2023-04-02T13:46:08.075Z,9.19
2023-04-02T13:51:16.548Z,9.28
2023-04-02T13:56:23.558Z,8.92
2023-04-02T14:01:29.198Z,8.83
2023-04-02T14:07:01.669Z,9.30
2023-04-02T14:12:31.143Z,9.14
2023-04-02T14:17:40.118Z,9.26
2023-04-02T14:23:06.834Z,9.22
2023-04-02T14:28:41.657Z,8.97
2023-04-02T14:34:02.202Z,9.01
2023-04-02T14:39:16.449Z,9.11
2023-04-02T14:44:25.173Z,8.94
2023-04-02T14:49:41.406Z,9.06
2023-04-02T14:54:58.764Z,9.23
2023-04-02T15:00:10.514Z,9.25
2023-04-02T15:05:31.018Z,9.37
2023-04-02T15:10:39.506Z,9.42
2023-04-02T15:15:55.499Z,9.14
2023-04-02T15:21:10.496Z,9.34
2023-04-02T15:26:43.361Z,9.26
2023-04-02T15:31:49.475Z,9.03
2023-04-02T15:36:58.044Z,9.37
2023-04-02T15:42:21.526Z,9.40
2023-04-02T15:47:39.111Z,9.41
2023-04-02T15:52:53.407Z,9.20
2023-04-02T15:58:13.549Z,9.28
2023-04-02T16:03:30.671Z,9.22
2023-04-02T16:08:49.889Z,9.02
2023-04-02T16:14:07.523Z,9.26
2023-04-02T16:19:38.466Z,8.87
2023-04-02T16:24:44.462Z,8.70
2023-04-02T16:30:11.327Z,8.62
2023-04-02T16:35:44.028Z,8.55
2023-04-02T16:41:07.720Z,8.36
2023-04-02T16:46:08.673Z,8.69
2023-04-02T16:51:26.233Z,7.94
2023-04-02T16:56:49.739Z,7.43
2023-04-02T17:02:15.911Z,7.15
2023-04-02T17:07:30.482Z,6.92
2023-04-02T17:12:39.042Z,6.90
2023-04-02T17:17:45.905Z,6.65
2023-04-02T17:22:53.493Z,6.62
2023-04-02T17:27:59.275Z,6.51
2023-04-02T17:33:07.877Z,6.44
2023-04-02T17:38:28.063Z,6.20
2023-04-02T17:43:54.526Z,6.04
2023-04-02T17:49:22.996Z,6.03
2023-04-02T17:54:34.536Z,5.93
2023-04-02T17:59:48.857Z,5.78
2023-04-02T18:05:09.356Z,5.65
2023-04-02T18:10:36.647Z,5.44
2023-04-02T18:16:03.354Z,5.39
2023-04-02T18:21:14.450Z,5.30
2023-04-02T18:26:34.951Z,5.14
2023-04-02T18:31:55.598Z,5.13
2023-04-02T18:37:22.063Z,5.11
2023-04-02T18:42:42.574Z,5.11
2023-04-02T18:47:56.601Z,5.01
2023-04-02T18:53:14.430Z,4.90
2023-04-02T18:58:22.986Z,4.90
2023-04-02T19:03:34.477Z,4.80
2023-04-02T19:08:58.261Z,4.80
2023-04-02T19:14:09.554Z,4.76
2023-04-02T19:19:27.131Z,4.63
2023-04-02T19:24:36.351Z,4.59
2023-04-02T19:30:09.283Z,4.65
2023-04-02T19:35:26.709Z,4.56
2023-04-02T19:40:41.073Z,4.51
2023-04-02T19:45:53.433Z,4.38
2023-04-02T19:51:00.477Z,4.35
2023-04-02T19:56:06.291Z,4.35
2023-04-02T20:01:11.805Z,4.29
2023-04-02T20:06:17.411Z,4.29
2023-04-02T20:11:22.961Z,4.13
2023-04-02T20:16:28.554Z,4.13
2023-04-02T20:21:35.835Z,4.10
2023-04-02T20:26:41.409Z,4.06
2023-04-02T20:31:46.947Z,4.11
2023-04-02T20:36:53.784Z,4.07
2023-04-02T20:42:01.288Z,3.97
2023-04-02T20:47:07.477Z,3.90
2023-04-02T20:52:12.910Z,3.99
2023-04-02T20:57:20.095Z,4.04
2023-04-02T21:02:25.696Z,4.02
2023-04-02T21:07:31.557Z,3.93
2023-04-02T21:12:41.458Z,3.95
2023-04-02T21:17:47.192Z,3.91
2023-04-02T21:22:53.098Z,3.91
2023-04-02T21:27:58.608Z,3.84
2023-04-02T21:33:04.205Z,3.74
2023-04-02T21:38:09.846Z,3.75
2023-04-02T21:43:15.526Z,3.62
2023-04-02T21:48:20.995Z,3.54
2023-04-02T21:53:26.667Z,3.53
2023-04-02T21:58:32.591Z,3.56
2023-04-02T22:03:39.095Z,3.59
2023-04-02T22:08:45.993Z,3.60
2023-04-02T22:13:51.866Z,3.56
2023-04-02T22:19:01.327Z,3.59
2023-04-02T22:24:14.213Z,3.60
2023-04-02T22:29:20.716Z,3.56
2023-04-02T22:34:26.320Z,3.57
2023-04-02T22:39:31.813Z,3.50
2023-04-02T22:44:37.241Z,3.47
2023-04-02T22:49:42.883Z,3.47
2023-04-02T22:54:48.306Z,3.43
2023-04-02T22:59:53.807Z,3.47
2023-04-02T23:04:59.337Z,3.39
2023-04-02T23:10:06.521Z,3.43
2023-04-02T23:15:12.891Z,3.52
2023-04-02T23:20:18.560Z,3.47
2023-04-02T23:25:24.135Z,3.51
2023-04-02T23:30:29.601Z,3.51
2023-04-02T23:35:35.824Z,3.47
2023-04-02T23:40:41.730Z,3.38
2023-04-02T23:45:51.198Z,3.54
2023-04-02T23:50:56.703Z,3.54
2023-04-02T23:56:02.405Z,3.47
